createdAt,value
2023-02-07T00:02:15.336Z,80.48
2023-02-07T00:04:42.101Z,80.37
2023-02-07T00:07:08.765Z,80.58
2023-02-07T00:09:35.350Z,81.02
2023-02-07T00:12:02.535Z,81.01
2023-02-07T00:14:29.453Z,80.73
2023-02-07T00:16:56.205Z,81.23
2023-02-07T00:19:22.924Z,81.14
2023-02-07T00:21:49.543Z,80.33
2023-02-07T00:24:16.248Z,81.12
2023-02-07T00:26:43.000Z,81.26
2023-02-07T00:29:10.390Z,82.02
2023-02-07T00:31:37.309Z,81.67
2023-02-07T00:34:06.060Z,81.46
2023-02-07T00:36:34.302Z,81.44
2023-02-07T00:39:04.984Z,81.22
2023-02-07T00:41:32.857Z,80.88
2023-02-07T00:44:00.153Z,81.54
2023-02-07T00:46:26.898Z,81.68
2023-02-07T00:48:55.059Z,82.21
2023-02-07T00:51:22.629Z,82.45
2023-02-07T00:53:49.244Z,81.95
2023-02-07T00:56:17.190Z,81.33
2023-02-07T00:58:43.789Z,81.07
2023-02-07T01:01:10.588Z,80.59
2023-02-07T01:03:37.618Z,80.54
2023-02-07T01:06:05.498Z,80.65
2023-02-07T01:08:32.299Z,80.83
2023-02-07T01:11:03.181Z,81.14
2023-02-07T01:13:29.879Z,81.41
2023-02-07T01:15:56.581Z,81.47
2023-02-07T01:18:23.397Z,81.27
2023-02-07T01:20:50.027Z,81.06
2023-02-07T01:23:17.005Z,81.12
2023-02-07T01:25:44.841Z,80.72
2023-02-07T01:28:12.867Z,80.60
2023-02-07T01:30:44.316Z,80.58
2023-02-07T01:33:11.381Z,80.43
2023-02-07T01:35:38.514Z,80.21
2023-02-07T01:38:05.408Z,79.35
2023-02-07T01:40:32.235Z,78.34
2023-02-07T01:42:58.966Z,77.69
2023-02-07T01:45:31.442Z,77.27
2023-02-07T01:48:12.779Z,77.79
2023-02-07T01:50:42.633Z,77.66
2023-02-07T01:53:12.698Z,77.57
2023-02-07T01:55:42.989Z,77.66
2023-02-07T01:58:10.392Z,76.65
2023-02-07T02:00:37.885Z,76.34
2023-02-07T02:03:06.408Z,75.98
2023-02-07T02:05:35.555Z,75.73
2023-02-07T02:08:02.776Z,75.78
2023-02-07T02:11:07.532Z,75.08
2023-02-07T02:13:49.987Z,75.17
2023-02-07T02:16:19.400Z,75.65
2023-02-07T02:19:13.327Z,75.74
2023-02-07T02:22:25.334Z,76.41
2023-02-07T02:25:20.272Z,76.66
2023-02-07T02:28:19.528Z,77.06
2023-02-07T02:31:02.621Z,76.72
2023-02-07T02:33:38.705Z,76.37
2023-02-07T02:36:17.476Z,76.05
2023-02-07T02:38:59.625Z,76.82
2023-02-07T02:41:42.257Z,77.98
2023-02-07T02:44:20.270Z,78.35
2023-02-07T02:46:48.715Z,78.72
2023-02-07T02:49:17.746Z,78.29
2023-02-07T02:51:44.496Z,77.05
2023-02-07T02:54:32.258Z,76.90
2023-02-07T02:57:15.470Z,76.82
2023-02-07T03:00:02.642Z,75.86
2023-02-07T03:02:50.365Z,75.49
2023-02-07T03:05:46.308Z,75.38
2023-02-07T03:08:38.361Z,75.64
2023-02-07T03:11:18.929Z,74.54
2023-02-07T03:14:33.722Z,74.59
2023-02-07T03:17:05.946Z,74.43
2023-02-07T03:19:49.780Z,74.71
2023-02-07T03:22:20.219Z,74.33
2023-02-07T03:24:54.472Z,74.33
2023-02-07T03:27:24.619Z,73.86
2023-02-07T03:29:54.973Z,73.78
2023-02-07T03:32:21.807Z,74.32
2023-02-07T03:35:04.045Z,75.06
2023-02-07T03:37:41.497Z,75.11
2023-02-07T03:40:09.007Z,75.03
2023-02-07T03:42:41.744Z,74.99
2023-02-07T03:45:12.391Z,74.30
2023-02-07T03:47:39.360Z,74.36
2023-02-07T03:50:06.362Z,74.34
2023-02-07T03:52:33.111Z,74.66
2023-02-07T03:54:59.693Z,74.25
2023-02-07T03:57:26.382Z,73.86
2023-02-07T03:59:53.108Z,73.74
2023-02-07T04:02:19.857Z,73.90
2023-02-07T04:04:46.446Z,74.30
2023-02-07T04:07:13.152Z,74.85
2023-02-07T04:09:40.838Z,75.09
2023-02-07T04:12:07.644Z,74.91
2023-02-07T04:14:34.806Z,75.23
2023-02-07T04:17:01.594Z,76.15
2023-02-07T04:19:28.265Z,75.90
2023-02-07T04:21:55.061Z,76.05
2023-02-07T04:24:21.658Z,76.01
2023-02-07T04:26:48.356Z,74.95
2023-02-07T04:29:14.979Z,75.11
2023-02-07T04:31:41.900Z,75.04
2023-02-07T04:34:09.370Z,74.34
2023-02-07T04:36:36.411Z,74.71
2023-02-07T04:39:03.625Z,74.37
2023-02-07T04:41:30.348Z,74.46
2023-02-07T04:43:57.104Z,74.98
2023-02-07T04:46:23.817Z,76.86
2023-02-07T04:48:50.414Z,77.49
2023-02-07T04:54:08.337Z,75.56
2023-02-07T04:56:36.389Z,76.16
2023-02-07T04:59:03.321Z,76.85
2023-02-07T05:01:29.949Z,77.00
2023-02-07T05:03:56.688Z,77.72
2023-02-07T05:06:23.313Z,76.85
2023-02-07T05:08:50.008Z,77.44
2023-02-07T05:11:16.970Z,78.20
2023-02-07T05:13:43.696Z,78.16
2023-02-07T05:16:10.345Z,78.32
2023-02-07T05:18:37.038Z,78.77
2023-02-07T05:21:03.795Z,77.99
2023-02-07T05:23:30.429Z,79.64
2023-02-07T05:25:57.143Z,79.80
2023-02-07T05:28:23.956Z,80.25
2023-02-07T05:30:54.015Z,81.85
2023-02-07T05:33:20.916Z,82.37
2023-02-07T05:35:47.520Z,82.71
2023-02-07T05:38:16.685Z,82.82
2023-02-07T05:40:43.736Z,82.85
2023-02-07T05:43:11.830Z,82.76
2023-02-07T05:45:38.810Z,83.91
2023-02-07T05:48:06.012Z,83.85
2023-02-07T05:50:34.127Z,83.52
2023-02-07T05:53:09.813Z,83.38
2023-02-07T05:55:37.493Z,83.75
2023-02-07T05:58:04.393Z,84.08
2023-02-07T06:00:31.571Z,84.21
2023-02-07T06:02:58.214Z,85.62
2023-02-07T06:05:25.089Z,85.99
2023-02-07T06:07:52.095Z,85.45
2023-02-07T06:10:18.943Z,85.14
2023-02-07T06:12:45.701Z,85.00
2023-02-07T06:15:12.473Z,84.19
2023-02-07T06:17:39.091Z,83.30
2023-02-07T06:20:06.242Z,82.59
2023-02-07T06:22:35.995Z,82.00
2023-02-07T06:25:02.848Z,82.64
2023-02-07T06:27:29.643Z,82.90
2023-02-07T06:29:56.493Z,83.20
2023-02-07T06:32:23.126Z,83.08
2023-02-07T06:34:49.866Z,83.44
2023-02-07T06:37:16.549Z,82.94
2023-02-07T06:39:43.320Z,83.17
2023-02-07T06:42:09.943Z,83.03
2023-02-07T06:44:36.756Z,82.61
2023-02-07T06:47:03.402Z,82.36
2023-02-07T06:49:30.078Z,82.64
2023-02-07T06:51:56.744Z,81.94
2023-02-07T06:54:23.532Z,82.48
2023-02-07T06:56:50.275Z,81.86
2023-02-07T06:59:17.192Z,80.89
2023-02-07T07:01:43.966Z,81.23
2023-02-07T07:04:10.714Z,80.78
2023-02-07T07:06:37.530Z,81.34
2023-02-07T07:09:04.579Z,81.18
2023-02-07T07:11:31.242Z,81.66
2023-02-07T07:13:58.078Z,82.51
2023-02-07T07:16:24.744Z,82.14
2023-02-07T07:18:51.421Z,82.07
2023-02-07T07:21:18.108Z,82.25
2023-02-07T07:23:44.860Z,81.82
2023-02-07T07:26:11.470Z,81.39
2023-02-07T07:28:38.255Z,80.94
2023-02-07T07:31:06.403Z,80.03
2023-02-07T07:33:33.286Z,80.75
2023-02-07T07:36:01.501Z,80.31
2023-02-07T07:38:30.174Z,80.81
2023-02-07T07:40:56.800Z,80.53
2023-02-07T07:43:23.661Z,79.29
2023-02-07T07:45:55.822Z,79.33
2023-02-07T07:48:23.771Z,80.32
2023-02-07T07:50:51.646Z,80.19
2023-02-07T07:53:19.446Z,80.33
2023-02-07T07:55:53.786Z,80.14
2023-02-07T07:58:21.887Z,80.31
2023-02-07T08:00:48.723Z,79.27
2023-02-07T08:03:17.167Z,79.59
2023-02-07T08:05:44.070Z,78.59
2023-02-07T08:08:11.089Z,80.20
2023-02-07T08:10:38.517Z,80.20
2023-02-07T08:13:05.333Z,80.39
2023-02-07T08:15:32.340Z,81.84
2023-02-07T08:17:59.210Z,81.47
2023-02-07T08:20:25.863Z,79.51
2023-02-07T08:22:53.255Z,80.24
2023-02-07T08:25:19.927Z,79.48
2023-02-07T08:27:46.711Z,80.73
2023-02-07T08:30:14.035Z,81.33
2023-02-07T08:32:42.022Z,82.36
2023-02-07T08:35:09.357Z,81.18
2023-02-07T08:37:36.413Z,79.38
2023-02-07T08:40:05.003Z,77.76
2023-02-07T08:42:31.799Z,77.51
2023-02-07T08:44:58.390Z,77.12
2023-02-07T08:47:25.227Z,76.59
2023-02-07T08:49:51.879Z,77.35
2023-02-07T08:52:18.588Z,76.94
2023-02-07T08:54:45.321Z,76.00
2023-02-07T08:57:12.046Z,76.21
2023-02-07T08:59:38.632Z,76.92
2023-02-07T09:02:05.405Z,76.51
2023-02-07T09:04:32.085Z,75.71
2023-02-07T09:06:58.815Z,75.19
2023-02-07T09:09:25.622Z,74.79
2023-02-07T09:11:52.651Z,74.69
2023-02-07T09:14:19.695Z,74.71
2023-02-07T09:16:46.793Z,74.93
2023-02-07T09:19:13.523Z,75.06
2023-02-07T09:21:40.231Z,75.92
2023-02-07T09:24:06.964Z,77.25
2023-02-07T09:26:33.774Z,75.68
2023-02-07T09:29:00.555Z,76.51
2023-02-07T09:31:27.702Z,76.08
2023-02-07T09:33:54.364Z,76.00
2023-02-07T09:36:27.716Z,75.72
2023-02-07T09:38:55.648Z,75.33
2023-02-07T09:41:44.544Z,76.08
2023-02-07T09:44:44.713Z,74.49
2023-02-07T09:47:19.811Z,72.40
2023-02-07T09:49:46.538Z,74.04
2023-02-07T09:52:23.744Z,73.29
2023-02-07T09:54:53.844Z,71.91
2023-02-07T09:57:45.793Z,70.47
2023-02-07T10:00:29.351Z,69.69
2023-02-07T10:02:58.509Z,69.69
2023-02-07T10:05:44.528Z,70.98
2023-02-07T10:08:14.347Z,70.62
2023-02-07T10:10:44.066Z,70.27
2023-02-07T10:13:32.670Z,71.00
2023-02-07T10:15:59.376Z,71.43
2023-02-07T10:18:40.608Z,72.17
2023-02-07T10:21:39.967Z,71.31
2023-02-07T10:24:36.591Z,71.59
2023-02-07T10:27:09.650Z,73.20
2023-02-07T10:29:43.481Z,71.70
2023-02-07T10:32:19.376Z,71.53
2023-02-07T10:34:47.712Z,69.91
2023-02-07T10:37:20.672Z,67.78
2023-02-07T10:39:54.919Z,66.61
2023-02-07T10:42:21.626Z,68.37
2023-02-07T10:44:48.336Z,70.64
2023-02-07T10:47:17.655Z,70.75
2023-02-07T10:49:48.355Z,68.75
2023-02-07T10:52:24.137Z,68.63
2023-02-07T10:54:55.155Z,69.75
2023-02-07T10:57:22.387Z,69.51
2023-02-07T10:59:49.848Z,67.91
2023-02-07T11:02:28.644Z,68.52
2023-02-07T11:04:57.488Z,67.35
2023-02-07T11:07:24.670Z,65.24
2023-02-07T11:09:51.872Z,66.20
2023-02-07T11:12:21.846Z,67.66
2023-02-07T11:15:03.544Z,68.82
2023-02-07T11:17:30.575Z,68.50
2023-02-07T11:20:02.137Z,68.09
2023-02-07T11:22:29.001Z,67.60
2023-02-07T11:25:03.373Z,67.29
2023-02-07T11:27:38.121Z,65.67
2023-02-07T11:30:08.215Z,65.71
2023-02-07T11:32:36.655Z,67.81
2023-02-07T11:35:09.792Z,66.74
2023-02-07T11:37:37.662Z,66.17
2023-02-07T11:40:23.303Z,63.35
2023-02-07T11:43:24.952Z,62.05
2023-02-07T11:45:59.546Z,63.61
2023-02-07T11:48:29.599Z,63.16
2023-02-07T11:50:59.033Z,62.30
2023-02-07T11:53:32.811Z,61.50
2023-02-07T11:55:59.650Z,62.51
2023-02-07T11:58:35.911Z,62.93
2023-02-07T12:01:05.103Z,63.35
2023-02-07T12:03:33.327Z,61.86
2023-02-07T12:06:04.731Z,62.59
2023-02-07T12:08:35.204Z,63.13
2023-02-07T12:11:12.344Z,63.75
2023-02-07T12:13:43.148Z,65.31
2023-02-07T12:16:28.673Z,66.45
2023-02-07T12:19:06.150Z,65.37
2023-02-07T12:22:13.457Z,65.68
2023-02-07T12:24:55.451Z,65.09
2023-02-07T12:27:29.109Z,63.97
2023-02-07T12:30:14.597Z,67.07
2023-02-07T12:33:34.081Z,66.85
2023-02-07T12:36:08.998Z,66.10
2023-02-07T12:38:46.926Z,65.16
2023-02-07T12:41:23.683Z,64.50
2023-02-07T12:44:27.437Z,66.59
2023-02-07T12:46:59.438Z,66.26
2023-02-07T12:49:40.297Z,67.72
2023-02-07T12:52:24.118Z,67.38
2023-02-07T12:55:08.864Z,67.04
2023-02-07T12:57:40.772Z,68.22
2023-02-07T13:00:32.140Z,67.18
2023-02-07T13:03:05.280Z,66.86
2023-02-07T13:05:41.500Z,67.70
2023-02-07T13:08:20.531Z,66.63
2023-02-07T13:11:13.287Z,67.91
2023-02-07T13:14:02.003Z,67.99
2023-02-07T13:16:34.744Z,67.66
2023-02-07T13:19:04.268Z,65.76
2023-02-07T13:21:30.818Z,65.90
2023-02-07T13:24:02.988Z,65.39
2023-02-07T13:26:31.135Z,68.12
2023-02-07T13:29:13.162Z,67.31
2023-02-07T13:31:47.114Z,67.18
2023-02-07T13:34:18.201Z,66.58
2023-02-07T13:36:47.825Z,66.77
2023-02-07T13:39:33.400Z,65.91
2023-02-07T13:42:40.924Z,66.77
2023-02-07T13:45:13.467Z,66.72
2023-02-07T13:47:40.116Z,65.29
2023-02-07T13:50:34.637Z,67.81
2023-02-07T13:53:19.659Z,66.31
2023-02-07T13:55:47.165Z,64.84
2023-02-07T13:58:32.642Z,64.00
2023-02-07T14:01:07.951Z,65.87
2023-02-07T14:03:35.893Z,65.82
2023-02-07T14:06:14.527Z,65.72
2023-02-07T14:08:43.170Z,66.53
2023-02-07T14:11:31.042Z,63.73
2023-02-07T14:14:15.471Z,60.55
2023-02-07T14:16:51.480Z,61.09
2023-02-07T14:19:41.155Z,59.57
2023-02-07T14:22:52.507Z,61.06
2023-02-07T14:25:38.994Z,61.51
2023-02-07T14:28:34.690Z,60.56
2023-02-07T14:31:11.742Z,60.98
2023-02-07T14:33:40.353Z,62.29
2023-02-07T14:36:12.927Z,61.04
2023-02-07T14:38:42.602Z,61.78
2023-02-07T14:41:15.206Z,63.68
2023-02-07T14:43:44.651Z,62.66
2023-02-07T14:46:16.132Z,63.08
2023-02-07T14:48:59.824Z,64.02
2023-02-07T14:51:29.287Z,63.23
2023-02-07T14:57:39.199Z,63.67
2023-02-07T15:00:15.668Z,64.73
2023-02-07T15:02:44.078Z,63.53
2023-02-07T15:05:13.706Z,63.53
2023-02-07T15:07:41.432Z,64.20
2023-02-07T15:10:44.125Z,64.26
2023-02-07T15:13:25.604Z,64.73
2023-02-07T15:15:58.444Z,65.48
2023-02-07T15:18:29.481Z,65.25
2023-02-07T15:20:58.816Z,66.56
2023-02-07T15:23:28.452Z,65.67
2023-02-07T15:25:55.920Z,64.91
2023-02-07T15:28:28.144Z,65.02
2023-02-07T15:31:06.210Z,65.10
2023-02-07T15:33:50.871Z,65.68
2023-02-07T15:36:37.341Z,65.90
2023-02-07T15:39:07.297Z,66.06
2023-02-07T15:41:34.509Z,66.57
2023-02-07T15:44:06.529Z,66.77
2023-02-07T15:46:49.138Z,66.60
2023-02-07T15:49:37.046Z,67.31
2023-02-07T15:52:06.475Z,65.89
2023-02-07T15:54:39.192Z,65.67
2023-02-07T15:57:14.252Z,65.48
2023-02-07T15:59:42.433Z,66.19
2023-02-07T16:02:23.983Z,65.63
2023-02-07T16:04:51.374Z,65.26
2023-02-07T16:07:22.625Z,65.61
2023-02-07T16:09:49.416Z,66.07
2023-02-07T16:12:41.797Z,66.40
2023-02-07T16:15:28.079Z,66.96
2023-02-07T16:17:55.729Z,67.33
2023-02-07T16:20:22.957Z,67.64
2023-02-07T16:22:50.995Z,67.02
2023-02-07T16:25:23.612Z,67.55
2023-02-07T16:27:52.239Z,67.48
2023-02-07T16:30:30.137Z,67.03
2023-02-07T16:32:56.963Z,66.04
2023-02-07T16:35:27.615Z,66.82
2023-02-07T16:37:55.258Z,67.48
2023-02-07T16:40:21.905Z,68.31
2023-02-07T16:42:49.666Z,68.94
2023-02-07T16:45:21.858Z,69.34
2023-02-07T16:47:48.575Z,69.84
2023-02-07T16:50:20.473Z,70.47
2023-02-07T16:52:48.869Z,71.94
2023-02-07T16:55:16.810Z,72.27
2023-02-07T16:57:45.059Z,72.20
2023-02-07T17:00:20.687Z,71.89
2023-02-07T17:02:48.723Z,71.00
2023-02-07T17:05:18.943Z,69.68
2023-02-07T17:07:46.425Z,69.31
2023-02-07T17:10:29.372Z,68.94
2023-02-07T17:12:56.246Z,69.09
2023-02-07T17:15:23.034Z,68.98
2023-02-07T17:17:49.860Z,69.89
2023-02-07T17:20:20.680Z,70.48
2023-02-07T17:22:47.385Z,70.51
2023-02-07T17:25:14.095Z,70.57
2023-02-07T17:27:40.924Z,70.35
2023-02-07T17:30:23.468Z,70.10
2023-02-07T17:32:50.395Z,69.67
2023-02-07T17:35:17.113Z,69.66
2023-02-07T17:37:44.156Z,69.25
2023-02-07T17:40:22.949Z,69.23
2023-02-07T17:42:50.449Z,69.18
2023-02-07T17:45:17.582Z,68.74
2023-02-07T17:47:44.813Z,69.49
2023-02-07T17:50:23.673Z,68.58
2023-02-07T17:52:50.487Z,67.67
2023-02-07T17:55:17.267Z,68.03
2023-02-07T17:57:44.095Z,69.25
2023-02-07T18:00:24.422Z,71.16
2023-02-07T18:02:52.820Z,71.63
2023-02-07T18:05:19.636Z,72.24
2023-02-07T18:07:47.785Z,73.42
2023-02-07T18:10:20.523Z,73.50
2023-02-07T18:12:47.218Z,73.86
2023-02-07T18:15:14.824Z,74.16
2023-02-07T18:17:42.087Z,73.44
2023-02-07T18:20:09.431Z,74.21
2023-02-07T18:22:36.462Z,73.94
2023-02-07T18:25:03.250Z,74.27
2023-02-07T18:27:29.828Z,73.90
2023-02-07T18:29:56.582Z,73.50
2023-02-07T18:32:23.303Z,73.14
2023-02-07T18:34:49.998Z,72.99
2023-02-07T18:37:17.050Z,72.48
2023-02-07T18:39:43.718Z,72.25
2023-02-07T18:42:10.469Z,71.87
2023-02-07T18:44:37.264Z,70.86
2023-02-07T18:47:03.950Z,70.63
2023-02-07T18:49:30.594Z,70.68
2023-02-07T18:51:59.003Z,72.28
2023-02-07T18:54:25.696Z,73.52
2023-02-07T18:56:52.838Z,75.41
2023-02-07T18:59:21.070Z,77.45
2023-02-07T19:01:48.627Z,78.55
2023-02-07T19:04:16.066Z,79.81
2023-02-07T19:06:44.685Z,80.99
2023-02-07T19:09:12.461Z,81.60
2023-02-07T19:11:42.267Z,82.20
2023-02-07T19:14:15.251Z,83.24
2023-02-07T19:16:42.267Z,83.56
2023-02-07T19:19:11.179Z,83.68
2023-02-07T19:21:39.018Z,83.68
2023-02-07T19:24:08.493Z,84.50
2023-02-07T19:26:35.729Z,84.31
2023-02-07T19:29:03.208Z,84.29
2023-02-07T19:31:29.991Z,83.96
2023-02-07T19:33:58.295Z,83.22
2023-02-07T19:36:26.880Z,82.71
2023-02-07T19:38:54.894Z,81.92
2023-02-07T19:41:25.768Z,81.02
2023-02-07T19:43:52.682Z,79.29
2023-02-07T19:46:20.652Z,77.80
2023-02-07T19:48:48.119Z,77.07
2023-02-07T19:51:24.338Z,76.67
2023-02-07T19:53:51.718Z,75.96
2023-02-07T19:56:20.839Z,75.73
2023-02-07T19:58:51.525Z,75.23
2023-02-07T20:01:19.972Z,75.44
2023-02-07T20:03:49.565Z,74.70
2023-02-07T20:06:17.642Z,75.81
2023-02-07T20:08:44.777Z,75.61
2023-02-07T20:11:16.784Z,75.59
2023-02-07T20:13:46.072Z,76.05
2023-02-07T20:16:21.231Z,75.93
2023-02-07T20:18:48.745Z,76.00
2023-02-07T20:21:17.862Z,75.60
2023-02-07T20:23:44.558Z,74.82
2023-02-07T20:26:13.907Z,74.80
2023-02-07T20:28:41.173Z,74.79
2023-02-07T20:31:10.632Z,74.14
2023-02-07T20:33:39.435Z,74.78
2023-02-07T20:36:07.218Z,74.32
2023-02-07T20:38:34.164Z,74.22
2023-02-07T20:41:13.455Z,74.83
2023-02-07T20:43:41.103Z,74.66
2023-02-07T20:46:13.305Z,74.29
2023-02-07T20:48:40.922Z,74.21
2023-02-07T20:51:09.146Z,74.57
2023-02-07T20:53:41.192Z,74.52
2023-02-07T20:56:13.828Z,74.26
2023-02-07T20:58:40.836Z,73.88
2023-02-07T21:01:13.598Z,73.64
2023-02-07T21:03:40.686Z,73.42
2023-02-07T21:06:08.681Z,73.61
2023-02-07T21:08:36.495Z,73.30
2023-02-07T21:11:04.284Z,73.45
2023-02-07T21:13:31.176Z,73.64
2023-02-07T21:16:07.454Z,74.12
2023-02-07T21:18:34.752Z,74.45
2023-02-07T21:21:06.458Z,75.21
2023-02-07T21:23:33.662Z,75.00
2023-02-07T21:26:08.891Z,74.90
2023-02-07T21:28:36.714Z,75.40
2023-02-07T21:31:09.420Z,75.56
2023-02-07T21:33:37.201Z,75.05
2023-02-07T21:36:12.012Z,74.79
2023-02-07T21:38:40.024Z,74.24
2023-02-07T21:41:08.669Z,74.50
2023-02-07T21:43:36.402Z,74.76
2023-02-07T21:46:04.195Z,76.16
2023-02-07T21:48:31.063Z,77.60
2023-02-07T21:51:05.538Z,78.08
2023-02-07T21:53:33.170Z,78.34
2023-02-07T21:56:04.895Z,78.39
2023-02-07T21:58:31.941Z,79.06
2023-02-07T22:01:14.427Z,78.56
2023-02-07T22:03:43.293Z,77.41
2023-02-07T22:06:10.550Z,77.68
2023-02-07T22:08:38.710Z,77.97
2023-02-07T22:11:08.522Z,78.00
2023-02-07T22:13:37.470Z,78.02
2023-02-07T22:16:04.500Z,77.88
2023-02-07T22:18:31.510Z,77.44
2023-02-07T22:21:08.521Z,77.29
2023-02-07T22:23:36.056Z,76.65
2023-02-07T22:26:03.149Z,77.73
2023-02-07T22:28:30.232Z,78.29
2023-02-07T22:30:56.954Z,78.17
2023-02-07T22:33:23.758Z,79.12
2023-02-07T22:35:50.691Z,80.03
2023-02-07T22:38:39.203Z,80.80
2023-02-07T22:41:06.195Z,80.97
2023-02-07T22:43:32.950Z,81.34
2023-02-07T22:46:08.106Z,80.77
2023-02-07T22:48:35.489Z,80.83
2023-02-07T22:51:26.181Z,81.62
2023-02-07T22:53:56.025Z,81.77
2023-02-07T22:56:27.109Z,81.71
2023-02-07T22:58:55.562Z,81.56
2023-02-07T23:01:31.353Z,81.73
2023-02-07T23:03:58.929Z,81.85
2023-02-07T23:06:26.190Z,81.52
2023-02-07T23:08:53.596Z,80.96
2023-02-07T23:11:22.408Z,80.71
2023-02-07T23:13:49.406Z,80.16
2023-02-07T23:16:19.172Z,79.46
2023-02-07T23:18:46.256Z,79.08
2023-02-07T23:21:18.581Z,78.83
2023-02-07T23:23:45.762Z,78.13
2023-02-07T23:26:15.678Z,77.33
2023-02-07T23:28:45.067Z,76.34
2023-02-07T23:31:14.141Z,75.67
2023-02-07T23:33:45.706Z,75.87
2023-02-07T23:36:18.054Z,74.93
2023-02-07T23:38:47.825Z,74.93
2023-02-07T23:41:15.493Z,75.10
2023-02-07T23:43:45.116Z,75.43
2023-02-07T23:46:14.130Z,74.68
2023-02-07T23:48:40.901Z,74.53
2023-02-07T23:51:07.666Z,74.60
2023-02-07T23:53:35.180Z,74.46
2023-02-07T23:56:03.543Z,74.27
2023-02-07T23:58:30.456Z,74.17
